sensor_id;sensor_type;location;lat;lon;timestamp;pressure;altitude;pressure_sealevel;temperature;humidity
11314;BME280;5712;48.858;9.206;2022-09-20T00:02:19;98650.81;;;9.38;100.00
11314;BME280;5712;48.858;9.206;2022-09-20T00:04:47;98635.91;;;9.37;100.00
11314;BME280;5712;48.858;9.206;2022-09-20T00:07:13;98632.16;;;9.41;100.00
11314;BME280;5712;48.858;9.206;2022-09-20T00:09:40;98637.44;;;9.41;100.00
11314;BME280;5712;48.858;9.206;2022-09-20T00:12:08;98634.66;;;9.28;100.00
11314;BME280;5712;48.858;9.206;2022-09-20T00:14:35;98632.78;;;9.15;100.00
11314;BME280;5712;48.858;9.206;2022-09-20T00:17:01;98637.97;;;9.01;100.00
11314;BME280;5712;48.858;9.206;2022-09-20T00:19:28;98632.50;;;8.88;100.00
11314;BME280;5712;48.858;9.206;2022-09-20T00:21:55;98635.56;;;8.81;100.00
11314;BME280;5712;48.858;9.206;2022-09-20T00:24:21;98634.19;;;8.74;100.00
11314;BME280;5712;48.858;9.206;2022-09-20T00:26:48;98632.13;;;8.63;100.00
11314;BME280;5712;48.858;9.206;2022-09-20T00:29:17;98640.81;;;8.65;100.00
11314;BME280;5712;48.858;9.206;2022-09-20T00:31:44;98626.44;;;8.71;100.00
11314;BME280;5712;48.858;9.206;2022-09-20T00:34:11;98635.38;;;8.84;100.00
11314;BME280;5712;48.858;9.206;2022-09-20T00:36:55;98631.16;;;8.97;100.00
11314;BME280;5712;48.858;9.206;2022-09-20T00:39:22;98634.06;;;9.08;100.00
11314;BME280;5712;48.858;9.206;2022-09-20T00:41:49;98628.44;;;9.14;100.00
11314;BME280;5712;48.858;9.206;2022-09-20T00:44:41;98623.69;;;9.20;100.00
11314;BME280;5712;48.858;9.206;2022-09-20T00:47:12;98636.41;;;9.28;100.00
11314;BME280;5712;48.858;9.206;2022-09-20T00:49:39;98636.06;;;9.34;100.00
11314;BME280;5712;48.858;9.206;2022-09-20T00:52:07;98636.00;;;9.35;100.00
11314;BME280;5712;48.858;9.206;2022-09-20T00:54:34;98627.81;;;9.40;100.00
11314;BME280;5712;48.858;9.206;2022-09-20T00:57:02;98635.56;;;9.43;100.00
11314;BME280;5712;48.858;9.206;2022-09-20T00:59:31;98638.97;;;9.45;100.00
11314;BME280;5712;48.858;9.206;2022-09-20T01:02:03;98631.81;;;9.47;100.00
11314;BME280;5712;48.858;9.206;2022-09-20T01:04:32;98631.56;;;9.51;100.00
11314;BME280;5712;48.858;9.206;2022-09-20T01:07:02;98634.00;;;9.54;100.00
11314;BME280;5712;48.858;9.206;2022-09-20T01:09:31;98632.16;;;9.56;100.00
11314;BME280;5712;48.858;9.206;2022-09-20T01:12:01;98634.69;;;9.58;100.00
11314;BME280;5712;48.858;9.206;2022-09-20T01:14:29;98627.56;;;9.60;100.00
11314;BME280;5712;48.858;9.206;2022-09-20T01:17:01;98635.28;;;9.63;100.00
11314;BME280;5712;48.858;9.206;2022-09-20T01:19:34;98633.50;;;9.63;100.00
11314;BME280;5712;48.858;9.206;2022-09-20T01:22:15;98634.41;;;9.62;100.00
11314;BME280;5712;48.858;9.206;2022-09-20T01:24:51;98637.06;;;9.62;100.00
11314;BME280;5712;48.858;9.206;2022-09-20T01:27:32;98638.78;;;9.63;100.00
11314;BME280;5712;48.858;9.206;2022-09-20T01:30:05;98633.66;;;9.60;100.00
11314;BME280;5712;48.858;9.206;2022-09-20T01:32:42;98630.28;;;9.58;100.00
11314;BME280;5712;48.858;9.206;2022-09-20T01:35:10;98632.84;;;9.60;100.00
11314;BME280;5712;48.858;9.206;2022-09-20T01:37:49;98634.69;;;9.58;100.00
11314;BME280;5712;48.858;9.206;2022-09-20T01:40:25;98629.41;;;9.58;100.00
11314;BME280;5712;48.858;9.206;2022-09-20T01:43:01;98634.59;;;9.59;100.00
11314;BME280;5712;48.858;9.206;2022-09-20T01:45:31;98639.97;;;9.58;100.00
11314;BME280;5712;48.858;9.206;2022-09-20T01:48:07;98634.88;;;9.55;100.00
11314;BME280;5712;48.858;9.206;2022-09-20T01:50:45;98627.97;;;9.52;100.00
11314;BME280;5712;48.858;9.206;2022-09-20T01:53:36;98623.47;;;9.54;100.00
11314;BME280;5712;48.858;9.206;2022-09-20T01:56:33;98628.06;;;9.51;100.00
11314;BME280;5712;48.858;9.206;2022-09-20T02:02:08;98623.72;;;9.50;100.00
11314;BME280;5712;48.858;9.206;2022-09-20T02:05:03;98626.88;;;9.56;100.00
11314;BME280;5712;48.858;9.206;2022-09-20T02:07:45;98628.59;;;9.57;100.00
11314;BME280;5712;48.858;9.206;2022-09-20T02:10:29;98629.25;;;9.61;100.00
11314;BME280;5712;48.858;9.206;2022-09-20T02:13:03;98634.34;;;9.64;100.00
11314;BME280;5712;48.858;9.206;2022-09-20T02:15:54;98632.63;;;9.63;100.00
11314;BME280;5712;48.858;9.206;2022-09-20T02:18:37;98633.97;;;9.70;100.00
11314;BME280;5712;48.858;9.206;2022-09-20T02:21:12;98626.84;;;9.72;100.00
11314;BME280;5712;48.858;9.206;2022-09-20T02:23:47;98623.44;;;9.70;100.00
11314;BME280;5712;48.858;9.206;2022-09-20T02:26:27;98626.50;;;9.62;100.00
11314;BME280;5712;48.858;9.206;2022-09-20T02:29:01;98615.47;;;9.56;100.00
11314;BME280;5712;48.858;9.206;2022-09-20T02:31:48;98612.81;;;9.56;100.00
11314;BME280;5712;48.858;9.206;2022-09-20T02:37:16;98627.72;;;9.57;100.00
11314;BME280;5712;48.858;9.206;2022-09-20T02:40:00;98623.38;;;9.56;100.00
11314;BME280;5712;48.858;9.206;2022-09-20T02:42:36;98622.53;;;9.55;100.00
11314;BME280;5712;48.858;9.206;2022-09-20T02:45:08;98617.00;;;9.60;100.00
11314;BME280;5712;48.858;9.206;2022-09-20T02:47:42;98616.66;;;9.66;100.00
11314;BME280;5712;48.858;9.206;2022-09-20T02:50:25;98623.63;;;9.67;100.00
11314;BME280;5712;48.858;9.206;2022-09-20T02:53:04;98627.97;;;9.68;100.00
11314;BME280;5712;48.858;9.206;2022-09-20T02:55:40;98618.50;;;9.64;100.00
11314;BME280;5712;48.858;9.206;2022-09-20T02:58:20;98630.09;;;9.61;100.00
11314;BME280;5712;48.858;9.206;2022-09-20T03:00:53;98629.41;;;9.58;100.00
11314;BME280;5712;48.858;9.206;2022-09-20T03:03:33;98627.94;;;9.38;100.00
11314;BME280;5712;48.858;9.206;2022-09-20T03:06:06;98631.34;;;9.25;100.00
11314;BME280;5712;48.858;9.206;2022-09-20T03:08:39;98635.81;;;9.07;100.00
11314;BME280;5712;48.858;9.206;2022-09-20T03:11:16;98637.88;;;9.02;100.00
11314;BME280;5712;48.858;9.206;2022-09-20T03:14:01;98634.91;;;8.93;100.00
11314;BME280;5712;48.858;9.206;2022-09-20T03:16:42;98638.38;;;8.93;100.00
11314;BME280;5712;48.858;9.206;2022-09-20T03:19:17;98639.06;;;8.97;100.00
11314;BME280;5712;48.858;9.206;2022-09-20T03:21:59;98638.56;;;9.06;100.00
11314;BME280;5712;48.858;9.206;2022-09-20T03:24:40;98637.78;;;9.19;100.00
11314;BME280;5712;48.858;9.206;2022-09-20T03:27:16;98642.47;;;9.30;100.00
11314;BME280;5712;48.858;9.206;2022-09-20T03:29:57;98637.53;;;9.39;100.00
11314;BME280;5712;48.858;9.206;2022-09-20T03:32:37;98642.34;;;9.47;100.00
11314;BME280;5712;48.858;9.206;2022-09-20T03:35:21;98643.56;;;9.57;100.00
11314;BME280;5712;48.858;9.206;2022-09-20T03:38:07;98647.63;;;9.62;100.00
11314;BME280;5712;48.858;9.206;2022-09-20T03:40:54;98648.31;;;9.66;100.00
11314;BME280;5712;48.858;9.206;2022-09-20T03:43:35;98644.72;;;9.67;100.00
11314;BME280;5712;48.858;9.206;2022-09-20T03:46:16;98643.53;;;9.72;100.00
11314;BME280;5712;48.858;9.206;2022-09-20T03:49:08;98647.03;;;9.73;100.00
11314;BME280;5712;48.858;9.206;2022-09-20T03:51:44;98655.69;;;9.75;100.00
11314;BME280;5712;48.858;9.206;2022-09-20T03:54:26;98651.28;;;9.75;100.00
11314;BME280;5712;48.858;9.206;2022-09-20T03:57:17;98656.44;;;9.77;100.00
11314;BME280;5712;48.858;9.206;2022-09-20T04:00:11;98649.47;;;9.76;100.00
11314;BME280;5712;48.858;9.206;2022-09-20T04:03:00;98653.72;;;9.78;100.00
11314;BME280;5712;48.858;9.206;2022-09-20T04:05:39;98664.94;;;9.82;100.00
11314;BME280;5712;48.858;9.206;2022-09-20T04:08:22;98657.97;;;9.81;100.00
11314;BME280;5712;48.858;9.206;2022-09-20T04:11:00;98662.16;;;9.85;100.00
11314;BME280;5712;48.858;9.206;2022-09-20T04:13:34;98657.81;;;9.84;100.00
11314;BME280;5712;48.858;9.206;2022-09-20T04:16:22;98661.22;;;9.86;100.00
11314;BME280;5712;48.858;9.206;2022-09-20T04:18:55;98659.50;;;9.85;100.00
11314;BME280;5712;48.858;9.206;2022-09-20T04:21:29;98664.34;;;9.77;100.00
11314;BME280;5712;48.858;9.206;2022-09-20T04:24:03;98659.97;;;9.62;100.00
11314;BME280;5712;48.858;9.206;2022-09-20T04:26:35;98660.06;;;9.45;100.00
11314;BME280;5712;48.858;9.206;2022-09-20T04:29:24;98658.78;;;9.36;100.00
11314;BME280;5712;48.858;9.206;2022-09-20T04:31:58;98658.66;;;9.24;100.00
11314;BME280;5712;48.858;9.206;2022-09-20T04:34:33;98663.13;;;9.22;100.00
11314;BME280;5712;48.858;9.206;2022-09-20T04:37:21;98660.41;;;9.23;100.00
11314;BME280;5712;48.858;9.206;2022-09-20T04:39:57;98657.09;;;9.20;100.00
11314;BME280;5712;48.858;9.206;2022-09-20T04:45:49;98668.41;;;9.22;100.00
11314;BME280;5712;48.858;9.206;2022-09-20T04:51:41;98672.19;;;9.18;100.00
11314;BME280;5712;48.858;9.206;2022-09-20T04:57:47;98679.53;;;8.96;100.00
11314;BME280;5712;48.858;9.206;2022-09-20T05:00:21;98682.25;;;8.94;100.00
11314;BME280;5712;48.858;9.206;2022-09-20T05:06:11;98692.38;;;8.86;100.00
11314;BME280;5712;48.858;9.206;2022-09-20T05:09:13;98689.31;;;8.78;100.00
11314;BME280;5712;48.858;9.206;2022-09-20T05:12:05;98701.19;;;8.70;100.00
11314;BME280;5712;48.858;9.206;2022-09-20T05:15:02;98701.41;;;8.65;100.00
11314;BME280;5712;48.858;9.206;2022-09-20T05:17:43;98699.94;;;8.60;100.00
11314;BME280;5712;48.858;9.206;2022-09-20T05:20:42;98701.19;;;8.53;100.00
11314;BME280;5712;48.858;9.206;2022-09-20T05:23:25;98699.66;;;8.49;100.00
11314;BME280;5712;48.858;9.206;2022-09-20T05:26:06;98708.97;;;8.39;100.00
11314;BME280;5712;48.858;9.206;2022-09-20T05:28:43;98702.78;;;8.40;100.00
11314;BME280;5712;48.858;9.206;2022-09-20T05:31:21;98700.13;;;8.40;100.00
11314;BME280;5712;48.858;9.206;2022-09-20T05:33:55;98708.19;;;8.37;100.00
11314;BME280;5712;48.858;9.206;2022-09-20T05:36:30;98703.09;;;8.34;100.00
11314;BME280;5712;48.858;9.206;2022-09-20T05:39:10;98710.81;;;8.37;100.00
11314;BME280;5712;48.858;9.206;2022-09-20T05:41:41;98718.72;;;8.37;100.00
11314;BME280;5712;48.858;9.206;2022-09-20T05:44:25;98714.25;;;8.39;100.00
11314;BME280;5712;48.858;9.206;2022-09-20T05:47:04;98720.97;;;8.44;100.00
11314;BME280;5712;48.858;9.206;2022-09-20T05:49:44;98721.03;;;8.43;100.00
11314;BME280;5712;48.858;9.206;2022-09-20T05:52:34;98708.19;;;8.37;100.00
11314;BME280;5712;48.858;9.206;2022-09-20T05:55:14;98715.88;;;8.41;100.00
11314;BME280;5712;48.858;9.206;2022-09-20T05:57:55;98727.25;;;8.42;100.00
11314;BME280;5712;48.858;9.206;2022-09-20T06:00:30;98725.59;;;8.39;100.00
11314;BME280;5712;48.858;9.206;2022-09-20T06:03:04;98729.25;;;8.37;100.00
11314;BME280;5712;48.858;9.206;2022-09-20T06:05:40;98735.63;;;8.33;100.00
11314;BME280;5712;48.858;9.206;2022-09-20T06:08:28;98743.34;;;8.36;100.00
11314;BME280;5712;48.858;9.206;2022-09-20T06:11:06;98735.00;;;8.45;100.00
11314;BME280;5712;48.858;9.206;2022-09-20T06:13:46;98734.50;;;8.54;100.00
11314;BME280;5712;48.858;9.206;2022-09-20T06:16:23;98739.53;;;8.58;100.00
11314;BME280;5712;48.858;9.206;2022-09-20T06:18:58;98739.38;;;8.61;100.00
11314;BME280;5712;48.858;9.206;2022-09-20T06:21:37;98736.81;;;8.60;100.00
11314;BME280;5712;48.858;9.206;2022-09-20T06:24:18;98736.00;;;8.59;100.00
11314;BME280;5712;48.858;9.206;2022-09-20T06:26:49;98727.66;;;8.67;100.00
11314;BME280;5712;48.858;9.206;2022-09-20T06:29:24;98740.38;;;8.76;100.00
11314;BME280;5712;48.858;9.206;2022-09-20T06:31:54;98738.59;;;8.76;100.00
11314;BME280;5712;48.858;9.206;2022-09-20T06:34:22;98740.91;;;8.82;100.00
11314;BME280;5712;48.858;9.206;2022-09-20T06:36:54;98747.56;;;8.89;100.00
11314;BME280;5712;48.858;9.206;2022-09-20T06:39:45;98731.94;;;9.02;100.00
11314;BME280;5712;48.858;9.206;2022-09-20T06:42:31;98745.16;;;9.17;100.00
11314;BME280;5712;48.858;9.206;2022-09-20T06:44:58;98748.00;;;9.30;100.00
11314;BME280;5712;48.858;9.206;2022-09-20T06:47:25;98752.94;;;9.36;100.00
11314;BME280;5712;48.858;9.206;2022-09-20T06:49:53;98754.91;;;9.48;100.00
11314;BME280;5712;48.858;9.206;2022-09-20T06:52:21;98757.44;;;9.65;100.00
11314;BME280;5712;48.858;9.206;2022-09-20T06:54:49;98760.88;;;9.67;100.00
11314;BME280;5712;48.858;9.206;2022-09-20T06:57:22;98761.34;;;9.73;100.00
11314;BME280;5712;48.858;9.206;2022-09-20T06:59:49;98760.59;;;9.87;100.00
11314;BME280;5712;48.858;9.206;2022-09-20T07:02:16;98757.06;;;10.02;100.00
11314;BME280;5712;48.858;9.206;2022-09-20T07:04:43;98761.69;;;10.14;100.00
11314;BME280;5712;48.858;9.206;2022-09-20T07:07:15;98763.88;;;10.21;100.00
11314;BME280;5712;48.858;9.206;2022-09-20T07:09:43;98763.19;;;10.33;100.00
11314;BME280;5712;48.858;9.206;2022-09-20T07:12:09;98762.00;;;10.39;100.00
11314;BME280;5712;48.858;9.206;2022-09-20T07:14:36;98770.47;;;10.44;100.00
11314;BME280;5712;48.858;9.206;2022-09-20T07:17:04;98775.69;;;10.45;100.00
11314;BME280;5712;48.858;9.206;2022-09-20T07:19:30;98773.69;;;10.49;100.00
11314;BME280;5712;48.858;9.206;2022-09-20T07:21:58;98772.31;;;10.57;100.00
11314;BME280;5712;48.858;9.206;2022-09-20T07:24:26;98774.44;;;10.66;100.00
11314;BME280;5712;48.858;9.206;2022-09-20T07:26:58;98778.13;;;10.92;100.00
11314;BME280;5712;48.858;9.206;2022-09-20T07:29:25;98765.78;;;11.20;100.00
11314;BME280;5712;48.858;9.206;2022-09-20T07:31:53;98767.94;;;11.42;100.00
11314;BME280;5712;48.858;9.206;2022-09-20T07:34:19;98771.38;;;11.44;100.00
11314;BME280;5712;48.858;9.206;2022-09-20T07:36:46;98769.84;;;11.40;100.00
11314;BME280;5712;48.858;9.206;2022-09-20T07:39:13;98771.53;;;11.41;100.00
11314;BME280;5712;48.858;9.206;2022-09-20T07:41:42;98774.47;;;11.36;100.00
11314;BME280;5712;48.858;9.206;2022-09-20T07:44:10;98767.94;;;11.42;100.00
11314;BME280;5712;48.858;9.206;2022-09-20T07:46:46;98768.50;;;11.47;100.00
11314;BME280;5712;48.858;9.206;2022-09-20T07:49:13;98774.97;;;11.43;100.00
11314;BME280;5712;48.858;9.206;2022-09-20T07:51:40;98778.53;;;11.42;100.00
11314;BME280;5712;48.858;9.206;2022-09-20T07:54:06;98783.25;;;11.51;100.00
11314;BME280;5712;48.858;9.206;2022-09-20T07:56:33;98778.53;;;11.42;100.00
11314;BME280;5712;48.858;9.206;2022-09-20T07:59:01;98780.22;;;11.57;97.40
11314;BME280;5712;48.858;9.206;2022-09-20T08:01:28;98784.00;;;11.53;97.66
11314;BME280;5712;48.858;9.206;2022-09-20T08:03:55;98781.75;;;11.47;94.56
11314;BME280;5712;48.858;9.206;2022-09-20T08:06:22;98787.91;;;11.61;94.19
11314;BME280;5712;48.858;9.206;2022-09-20T08:08:49;98793.69;;;11.68;92.85
11314;BME280;5712;48.858;9.206;2022-09-20T08:11:18;98793.00;;;11.78;91.13
11314;BME280;5712;48.858;9.206;2022-09-20T08:13:47;98802.13;;;12.01;88.02
11314;BME280;5712;48.858;9.206;2022-09-20T08:16:15;98796.91;;;12.13;88.00
11314;BME280;5712;48.858;9.206;2022-09-20T08:18:44;98805.13;;;12.35;86.12
11314;BME280;5712;48.858;9.206;2022-09-20T08:21:12;98803.53;;;12.72;87.30
11314;BME280;5712;48.858;9.206;2022-09-20T08:23:41;98804.72;;;12.93;82.60
11314;BME280;5712;48.858;9.206;2022-09-20T08:26:09;98806.28;;;12.97;85.73
11314;BME280;5712;48.858;9.206;2022-09-20T08:28:37;98808.16;;;12.95;82.12
11314;BME280;5712;48.858;9.206;2022-09-20T08:31:05;98809.41;;;12.89;82.41
11314;BME280;5712;48.858;9.206;2022-09-20T08:33:34;98805.84;;;13.03;83.13
11314;BME280;5712;48.858;9.206;2022-09-20T08:36:02;98804.47;;;13.10;81.58
11314;BME280;5712;48.858;9.206;2022-09-20T08:38:30;98803.72;;;13.20;77.64
11314;BME280;5712;48.858;9.206;2022-09-20T08:41:01;98805.13;;;13.26;77.22
11314;BME280;5712;48.858;9.206;2022-09-20T08:43:31;98799.81;;;13.26;77.39
11314;BME280;5712;48.858;9.206;2022-09-20T08:46:02;98806.28;;;13.34;78.67
11314;BME280;5712;48.858;9.206;2022-09-20T08:48:32;98799.38;;;13.57;72.58
11314;BME280;5712;48.858;9.206;2022-09-20T08:51:01;98797.69;;;13.56;73.29
11314;BME280;5712;48.858;9.206;2022-09-20T09:07:18;98792.69;;;14.36;63.65
11314;BME280;5712;48.858;9.206;2022-09-20T09:09:48;98791.91;;;14.23;65.26
11314;BME280;5712;48.858;9.206;2022-09-20T09:12:20;98789.22;;;14.23;65.66
11314;BME280;5712;48.858;9.206;2022-09-20T09:14:48;98800.50;;;14.14;68.62
11314;BME280;5712;48.858;9.206;2022-09-20T09:17:20;98795.22;;;14.01;67.50
11314;BME280;5712;48.858;9.206;2022-09-20T09:19:49;98792.69;;;14.00;67.83
11314;BME280;5712;48.858;9.206;2022-09-20T09:22:24;98802.06;;;13.93;68.03
11314;BME280;5712;48.858;9.206;2022-09-20T09:27:50;98788.00;;;13.91;67.86
11314;BME280;5712;48.858;9.206;2022-09-20T09:30:19;98795.88;;;13.92;66.69
11314;BME280;5712;48.858;9.206;2022-09-20T09:32:47;98789.50;;;13.95;66.12
11314;BME280;5712;48.858;9.206;2022-09-20T09:35:31;98786.75;;;13.96;67.39
11314;BME280;5712;48.858;9.206;2022-09-20T09:38:02;98786.50;;;13.99;64.38
11314;BME280;5712;48.858;9.206;2022-09-20T09:40:31;98789.41;;;13.84;65.75
11314;BME280;5712;48.858;9.206;2022-09-20T09:42:59;98795.31;;;13.64;66.90
11314;BME280;5712;48.858;9.206;2022-09-20T09:45:29;98792.78;;;13.50;66.31
11314;BME280;5712;48.858;9.206;2022-09-20T09:48:02;98790.66;;;13.42;68.67
11314;BME280;5712;48.858;9.206;2022-09-20T09:50:42;98790.25;;;13.23;68.58
11314;BME280;5712;48.858;9.206;2022-09-20T09:53:11;98796.75;;;13.07;70.23
11314;BME280;5712;48.858;9.206;2022-09-20T09:56:04;98787.47;;;13.00;69.67
11314;BME280;5712;48.858;9.206;2022-09-20T09:58:47;98787.16;;;13.17;71.11
11314;BME280;5712;48.858;9.206;2022-09-20T10:01:25;98781.06;;;13.77;66.43
11314;BME280;5712;48.858;9.206;2022-09-20T10:04:00;98776.66;;;14.25;61.28
11314;BME280;5712;48.858;9.206;2022-09-20T10:06:34;98775.78;;;14.71;60.86
11314;BME280;5712;48.858;9.206;2022-09-20T10:09:18;98773.31;;;15.14;58.19
11314;BME280;5712;48.858;9.206;2022-09-20T10:12:00;98775.94;;;15.37;55.81
11314;BME280;5712;48.858;9.206;2022-09-20T10:14:36;98778.97;;;14.98;57.26
11314;BME280;5712;48.858;9.206;2022-09-20T10:17:19;98784.31;;;14.64;59.23
11314;BME280;5712;48.858;9.206;2022-09-20T10:19:59;98786.59;;;14.34;60.63
11314;BME280;5712;48.858;9.206;2022-09-20T10:22:35;98789.00;;;14.26;61.97
11314;BME280;5712;48.858;9.206;2022-09-20T10:25:17;98783.56;;;14.27;62.98
11314;BME280;5712;48.858;9.206;2022-09-20T10:27:58;98776.66;;;14.25;62.50
11314;BME280;5712;48.858;9.206;2022-09-20T10:30:34;98770.28;;;14.15;63.04
11314;BME280;5712;48.858;9.206;2022-09-20T10:33:17;98774.28;;;13.97;65.45
11314;BME280;5712;48.858;9.206;2022-09-20T10:35:59;98779.50;;;13.86;66.91
11314;BME280;5712;48.858;9.206;2022-09-20T10:38:34;98772.75;;;13.82;67.62
11314;BME280;5712;48.858;9.206;2022-09-20T10:41:12;98767.44;;;13.82;65.77
11314;BME280;5712;48.858;9.206;2022-09-20T10:44:09;98771.88;;;14.17;64.06
11314;BME280;5712;48.858;9.206;2022-09-20T10:46:52;98763.34;;;14.83;58.65
11314;BME280;5712;48.858;9.206;2022-09-20T10:49:26;98762.38;;;15.40;56.39
11314;BME280;5712;48.858;9.206;2022-09-20T10:52:06;98774.34;;;15.68;57.74
11314;BME280;5712;48.858;9.206;2022-09-20T10:54:45;98768.31;;;15.55;58.05
11314;BME280;5712;48.858;9.206;2022-09-20T10:57:36;98766.38;;;15.35;60.09
11314;BME280;5712;48.858;9.206;2022-09-20T11:00:17;98765.59;;;15.22;61.68
11314;BME280;5712;48.858;9.206;2022-09-20T11:02:54;98776.22;;;15.00;60.32
11314;BME280;5712;48.858;9.206;2022-09-20T11:05:32;98776.06;;;14.90;62.79
11314;BME280;5712;48.858;9.206;2022-09-20T11:08:07;98778.16;;;14.98;61.44
11314;BME280;5712;48.858;9.206;2022-09-20T11:10:37;98779.84;;;14.99;59.05
11314;BME280;5712;48.858;9.206;2022-09-20T11:13:14;98775.03;;;15.15;59.01
11314;BME280;5712;48.858;9.206;2022-09-20T11:15:48;98767.22;;;15.57;60.43
11314;BME280;5712;48.858;9.206;2022-09-20T11:18:21;98774.31;;;16.12;57.48
11314;BME280;5712;48.858;9.206;2022-09-20T11:20:55;98771.53;;;16.55;58.02
11314;BME280;5712;48.858;9.206;2022-09-20T11:23:34;98766.19;;;16.55;52.88
11314;BME280;5712;48.858;9.206;2022-09-20T11:26:09;98771.25;;;16.58;55.74
11314;BME280;5712;48.858;9.206;2022-09-20T11:28:41;98764.13;;;16.59;54.18
11314;BME280;5712;48.858;9.206;2022-09-20T11:31:14;98768.03;;;16.75;53.26
11314;BME280;5712;48.858;9.206;2022-09-20T11:33:45;98764.22;;;17.09;53.07
11314;BME280;5712;48.858;9.206;2022-09-20T11:36:19;98768.63;;;16.99;50.96
11314;BME280;5712;48.858;9.206;2022-09-20T11:38:48;98774.16;;;16.87;50.45
11314;BME280;5712;48.858;9.206;2022-09-20T11:41:19;98763.63;;;16.85;51.51
11314;BME280;5712;48.858;9.206;2022-09-20T11:43:51;98760.22;;;16.83;52.62
11314;BME280;5712;48.858;9.206;2022-09-20T11:46:22;98764.06;;;16.70;52.47
11314;BME280;5712;48.858;9.206;2022-09-20T11:48:53;98763.25;;;16.58;52.31
11314;BME280;5712;48.858;9.206;2022-09-20T11:57:11;98754.59;;;16.34;52.51
11314;BME280;5712;48.858;9.206;2022-09-20T11:59:47;98755.38;;;16.14;55.06
11314;BME280;5712;48.858;9.206;2022-09-20T12:02:18;98752.91;;;15.80;57.37
11314;BME280;5712;48.858;9.206;2022-09-20T12:04:47;98752.56;;;15.41;57.61
11314;BME280;5712;48.858;9.206;2022-09-20T12:07:19;98754.22;;;15.20;56.32
11314;BME280;5712;48.858;9.206;2022-09-20T12:09:53;98751.69;;;15.18;56.62
11314;BME280;5712;48.858;9.206;2022-09-20T12:12:40;98745.25;;;15.32;54.00
11314;BME280;5712;48.858;9.206;2022-09-20T12:15:23;98742.16;;;15.38;54.62
11314;BME280;5712;48.858;9.206;2022-09-20T12:18:03;98743.00;;;15.49;56.36
11314;BME280;5712;48.858;9.206;2022-09-20T12:24:15;98743.84;;;15.72;54.22
11314;BME280;5712;48.858;9.206;2022-09-20T12:26:44;98738.13;;;15.87;54.68
11314;BME280;5712;48.858;9.206;2022-09-20T12:35:59;98734.84;;;16.68;54.56
11314;BME280;5712;48.858;9.206;2022-09-20T12:38:52;98728.97;;;16.95;50.53
11314;BME280;5712;48.858;9.206;2022-09-20T12:41:20;98728.25;;;16.93;48.89
11314;BME280;5712;48.858;9.206;2022-09-20T12:43:59;98738.56;;;16.97;49.44
11314;BME280;5712;48.858;9.206;2022-09-20T12:46:33;98730.91;;;16.93;49.79
11314;BME280;5712;48.858;9.206;2022-09-20T12:49:19;98730.41;;;16.78;49.17
11314;BME280;5712;48.858;9.206;2022-09-20T12:52:01;98729.16;;;16.82;50.78
11314;BME280;5712;48.858;9.206;2022-09-20T12:54:51;98737.75;;;17.06;52.39
11314;BME280;5712;48.858;9.206;2022-09-20T12:57:26;98729.44;;;17.30;51.62
11314;BME280;5712;48.858;9.206;2022-09-20T12:59:58;98724.19;;;17.39;49.55
11314;BME280;5712;48.858;9.206;2022-09-20T13:02:56;98730.88;;;17.34;49.36
11314;BME280;5712;48.858;9.206;2022-09-20T13:05:35;98728.56;;;17.20;48.72
11314;BME280;5712;48.858;9.206;2022-09-20T13:08:15;98727.69;;;17.19;50.83
11314;BME280;5712;48.858;9.206;2022-09-20T13:10:46;98729.50;;;17.09;48.98
11314;BME280;5712;48.858;9.206;2022-09-20T13:13:27;98722.50;;;16.56;49.68
11314;BME280;5712;48.858;9.206;2022-09-20T13:15:56;98725.53;;;16.20;51.14
11314;BME280;5712;48.858;9.206;2022-09-20T13:18:24;98734.59;;;15.87;55.18
11314;BME280;5712;48.858;9.206;2022-09-20T13:20:55;98730.28;;;15.64;56.58
11314;BME280;5712;48.858;9.206;2022-09-20T13:23:28;98739.00;;;15.44;58.86
11314;BME280;5712;48.858;9.206;2022-09-20T13:25:58;98730.59;;;15.15;57.81
11314;BME280;5712;48.858;9.206;2022-09-20T13:28:33;98736.28;;;15.00;59.35
11314;BME280;5712;48.858;9.206;2022-09-20T13:31:22;98738.59;;;14.93;60.31
11314;BME280;5712;48.858;9.206;2022-09-20T13:33:49;98737.22;;;14.88;59.07
11314;BME280;5712;48.858;9.206;2022-09-20T13:36:24;98737.72;;;14.93;58.23
11314;BME280;5712;48.858;9.206;2022-09-20T13:38:52;98728.69;;;15.06;57.42
11314;BME280;5712;48.858;9.206;2022-09-20T13:41:19;98731.56;;;15.14;58.11
11314;BME280;5712;48.858;9.206;2022-09-20T13:43:48;98730.97;;;15.11;57.54
11314;BME280;5712;48.858;9.206;2022-09-20T13:46:21;98727.13;;;15.15;56.44
11314;BME280;5712;48.858;9.206;2022-09-20T13:48:52;98734.81;;;15.07;57.75
11314;BME280;5712;48.858;9.206;2022-09-20T13:51:23;98732.19;;;14.96;56.40
11314;BME280;5712;48.858;9.206;2022-09-20T13:53:50;98737.50;;;14.96;56.68
11314;BME280;5712;48.858;9.206;2022-09-20T13:56:19;98736.84;;;14.92;56.27
11314;BME280;5712;48.858;9.206;2022-09-20T13:58:47;98734.34;;;14.91;56.67
11314;BME280;5712;48.858;9.206;2022-09-20T14:01:23;98739.06;;;14.87;59.24
11314;BME280;5712;48.858;9.206;2022-09-20T14:03:52;98741.28;;;14.70;61.79
11314;BME280;5712;48.858;9.206;2022-09-20T14:06:24;98745.94;;;14.44;62.78
11314;BME280;5712;48.858;9.206;2022-09-20T14:08:55;98754.44;;;14.26;63.52
11314;BME280;5712;48.858;9.206;2022-09-20T14:11:24;98758.34;;;13.97;63.77
11314;BME280;5712;48.858;9.206;2022-09-20T14:13:54;98750.09;;;13.89;63.01
11314;BME280;5712;48.858;9.206;2022-09-20T14:16:23;98756.13;;;13.91;62.61
11314;BME280;5712;48.858;9.206;2022-09-20T14:18:53;98750.59;;;13.94;63.54
11314;BME280;5712;48.858;9.206;2022-09-20T14:21:25;98762.03;;;14.07;63.49
11314;BME280;5712;48.858;9.206;2022-09-20T14:23:54;98759.09;;;13.99;62.06
11314;BME280;5712;48.858;9.206;2022-09-20T14:26:24;98751.84;;;14.01;61.72
11314;BME280;5712;48.858;9.206;2022-09-20T14:28:52;98754.22;;;13.93;61.77
11314;BME280;5712;48.858;9.206;2022-09-20T14:31:21;98760.78;;;14.00;62.65
11314;BME280;5712;48.858;9.206;2022-09-20T14:33:51;98756.97;;;13.91;61.71
11314;BME280;5712;48.858;9.206;2022-09-20T14:36:20;98749.13;;;13.90;60.41
11314;BME280;5712;48.858;9.206;2022-09-20T14:38:51;98750.81;;;13.91;61.36
11314;BME280;5712;48.858;9.206;2022-09-20T14:41:26;98746.75;;;13.98;60.89
11314;BME280;5712;48.858;9.206;2022-09-20T14:43:56;98747.56;;;14.11;60.35